Time;durP1;ratioP1;P1;durP2;ratioP2;P2;SDS_P1;SDS_P2;PMS_P1;PMS_P2;Temp;Humidity;BMP_temperature;BMP_pressure;BME280_temperature;BME280_humidity;BME280_pressure;Samples;Min_cycle;Max_cycle;Signal;HPM_P1;HPM_P2
2022/09/04 00:00:12;;;;;;;2.63;2.43;;;17.90;99.90;;;;;;5047528;28;20428;-44
2022/09/04 00:03:00;;;;;;;2.70;2.50;;;18.10;99.90;;;;;;5046740;28;20420;-46
2022/09/04 00:05:41;;;;;;;4.33;2.60;;;18.10;99.90;;;;;;5047548;28;20494;-47
2022/09/04 00:08:33;;;;;;;2.70;2.50;;;18.20;99.90;;;;;;5047547;28;20446;-46
2022/09/04 00:11:34;;;;;;;2.67;2.47;;;18.20;99.90;;;;;;5047202;28;20419;-49
2022/09/04 00:14:05;;;;;;;5.13;2.77;;;18.30;99.90;;;;;;5047390;28;20467;-50
2022/09/04 00:16:41;;;;;;;2.70;2.50;;;18.30;99.90;;;;;;5044570;28;20927;-47
2022/09/04 00:19:32;;;;;;;3.37;3.07;;;18.30;99.90;;;;;;5043022;28;20423;-45
2022/09/04 00:21:59;;;;;;;3.77;2.70;;;18.20;99.90;;;;;;5047749;28;20420;-45
2022/09/04 00:24:41;;;;;;;2.90;2.70;;;18.10;99.90;;;;;;5047474;28;20435;-44
2022/09/04 00:27:10;;;;;;;3.30;2.80;;;18.00;99.90;;;;;;5045714;28;20420;-48
2022/09/04 00:30:03;;;;;;;3.40;3.10;;;17.90;99.90;;;;;;5047197;28;20666;-46
2022/09/04 00:32:50;;;;;;;2.63;2.43;;;17.70;99.90;;;;;;5043105;28;20456;-49
2022/09/04 00:35:39;;;;;;;2.77;2.57;;;17.70;99.90;;;;;;5047132;28;20993;-44
2022/09/04 00:38:18;;;;;;;2.77;2.57;;;17.60;99.90;;;;;;5047387;28;20423;-48
2022/09/04 00:41:02;;;;;;;2.87;2.67;;;17.50;99.90;;;;;;5051027;28;20897;-49
2022/09/04 00:44:06;;;;;;;2.90;2.70;;;17.50;99.90;;;;;;5049622;28;20459;-49
2022/09/04 00:46:51;;;;;;;3.00;2.77;;;17.50;99.90;;;;;;5059901;28;20641;-49
2022/09/04 00:49:41;;;;;;;3.00;2.80;;;17.50;99.90;;;;;;5038446;28;20412;-52
2022/09/04 00:52:19;;;;;;;3.60;2.97;;;17.40;99.90;;;;;;5050398;28;20477;-49
2022/09/04 00:55:16;;;;;;;3.93;2.67;;;17.40;99.90;;;;;;5050309;28;20469;-47
2022/09/04 00:58:03;;;;;;;2.77;2.57;;;17.50;99.90;;;;;;5048268;28;20408;-45
2022/09/04 01:00:29;;;;;;;3.30;3.00;;;17.60;99.90;;;;;;5050791;28;20818;-46
2022/09/04 01:03:07;;;;;;;2.97;2.77;;;17.60;99.90;;;;;;5050251;28;20427;-45
2022/09/04 01:05:47;;;;;;;3.40;3.10;;;17.70;99.90;;;;;;5038265;28;20459;-51
2022/09/04 01:08:22;;;;;;;3.40;3.20;;;17.80;99.90;;;;;;5049426;28;20420;-45
2022/09/04 01:10:59;;;;;;;3.13;2.93;;;17.80;99.90;;;;;;5050447;28;20719;-47
2022/09/04 01:13:43;;;;;;;3.27;2.60;;;17.80;99.90;;;;;;5049678;28;20448;-46
2022/09/04 01:16:54;;;;;;;2.90;2.70;;;17.90;99.90;;;;;;5048767;28;20419;-46
2022/09/04 01:19:39;;;;;;;3.67;3.37;;;18.00;99.90;;;;;;5054047;28;20411;-48
2022/09/04 01:22:24;;;;;;;3.20;3.00;;;18.00;99.90;;;;;;5049904;28;20420;-44
2022/09/04 01:25:08;;;;;;;3.40;3.10;;;18.00;99.90;;;;;;5049299;28;20542;-43
2022/09/04 01:27:49;;;;;;;5.43;3.10;;;17.90;99.90;;;;;;5044720;28;20411;-47
2022/09/04 01:30:18;;;;;;;4.27;3.20;;;17.90;99.90;;;;;;5049746;28;20776;-47
2022/09/04 01:32:56;;;;;;;3.27;3.07;;;17.90;99.90;;;;;;5049629;28;20712;-49
2022/09/04 01:35:49;;;;;;;5.07;3.47;;;17.90;99.90;;;;;;5050010;28;20420;-49
2022/09/04 01:38:36;;;;;;;3.40;3.10;;;17.90;99.90;;;;;;5049084;28;20435;-47
2022/09/04 01:41:19;;;;;;;3.50;3.20;;;17.90;99.90;;;;;;5049566;28;20482;-48
2022/09/04 01:43:45;;;;;;;3.17;2.90;;;17.80;99.90;;;;;;5049415;28;20754;-49
2022/09/04 01:46:16;;;;;;;4.93;3.30;;;17.80;99.90;;;;;;5048859;28;20477;-48
2022/09/04 01:48:55;;;;;;;3.73;3.40;;;17.90;99.90;;;;;;5047901;28;20243;-49
2022/09/04 01:51:36;;;;;;;3.00;2.80;;;17.80;99.90;;;;;;5049586;28;20895;-47
2022/09/04 01:54:02;;;;;;;3.07;2.87;;;17.80;99.90;;;;;;5048973;28;20452;-48
2022/09/04 01:57:01;;;;;;;4.30;3.90;;;17.70;99.90;;;;;;5047769;28;20429;-46
2022/09/04 01:59:42;;;;;;;3.77;3.47;;;17.80;99.90;;;;;;5048207;28;20446;-45
2022/09/04 02:02:26;;;;;;;3.53;3.23;;;17.80;99.90;;;;;;5047722;28;20456;-46
2022/09/04 02:05:13;;;;;;;4.03;3.70;;;17.80;99.90;;;;;;5049016;28;20877;-47
2022/09/04 02:07:57;;;;;;;3.63;3.33;;;17.70;99.90;;;;;;5048293;28;20504;-44
2022/09/04 02:10:41;;;;;;;3.30;3.00;;;17.70;99.90;;;;;;5048120;28;20787;-46
2022/09/04 02:13:32;;;;;;;3.33;3.03;;;17.50;99.90;;;;;;5048734;28;20480;-44
2022/09/04 02:16:46;;;;;;;3.57;3.30;;;17.30;99.90;;;;;;5048757;28;20417;-45
2022/09/04 02:19:35;;;;;;;3.50;3.20;;;17.30;99.90;;;;;;5068742;28;20953;-44
2022/09/04 02:22:26;;;;;;;5.00;3.30;;;17.30;99.90;;;;;;5066128;28;20438;-46
2022/09/04 02:25:19;;;;;;;4.00;3.60;;;17.30;99.90;;;;;;5043542;28;20474;-47
2022/09/04 02:27:48;;;;;;;3.77;3.47;;;17.30;99.90;;;;;;5047655;28;20937;-46
2022/09/04 02:30:17;;;;;;;3.37;3.17;;;17.10;99.90;;;;;;5048508;28;20803;-44
2022/09/04 02:33:02;;;;;;;3.93;3.43;;;17.00;99.90;;;;;;5048170;28;20478;-48
2022/09/04 02:35:46;;;;;;;3.90;3.60;;;17.00;99.90;;;;;;5048506;28;20424;-43
2022/09/04 02:38:42;;;;;;;3.10;2.90;;;17.10;99.90;;;;;;5047991;28;20474;-45
2022/09/04 02:41:13;;;;;;;3.27;3.00;;;17.10;99.90;;;;;;5048343;28;20508;-48
2022/09/04 02:43:53;;;;;;;4.13;3.30;;;17.20;99.90;;;;;;5048566;28;20499;-51
2022/09/04 02:46:45;;;;;;;3.97;3.67;;;17.30;99.90;;;;;;5048549;28;20416;-44
2022/09/04 02:49:47;;;;;;;3.57;3.27;;;17.30;99.90;;;;;;5054512;28;20909;-46
2022/09/04 02:52:37;;;;;;;3.67;3.37;;;17.30;99.90;;;;;;5048838;28;20434;-46
2022/09/04 02:55:29;;;;;;;3.77;3.47;;;17.40;99.90;;;;;;5048501;28;20427;-46
2022/09/04 02:58:30;;;;;;;3.57;3.27;;;17.40;99.90;;;;;;5044695;28;20416;-48
2022/09/04 03:01:06;;;;;;;4.00;3.70;;;17.40;99.90;;;;;;5044912;28;20441;-48
2022/09/04 03:03:48;;;;;;;3.70;3.40;;;17.40;99.90;;;;;;5051326;28;20408;-46
2022/09/04 03:06:42;;;;;;;3.97;3.67;;;17.40;99.90;;;;;;5047639;28;20435;-44
2022/09/04 03:09:14;;;;;;;4.00;3.60;;;17.40;99.90;;;;;;5048043;28;20416;-45
2022/09/04 03:12:08;;;;;;;3.40;3.10;;;17.40;99.90;;;;;;5048152;28;20432;-49
2022/09/04 03:14:59;;;;;;;4.60;3.40;;;17.40;99.90;;;;;;5042615;28;20479;-50
2022/09/04 03:17:24;;;;;;;3.40;3.10;;;17.40;99.90;;;;;;5047546;28;20435;-46
2022/09/04 03:20:07;;;;;;;4.40;4.10;;;17.30;99.90;;;;;;5051403;28;20819;-49
2022/09/04 03:22:42;;;;;;;4.10;3.70;;;17.40;99.90;;;;;;5047971;28;20404;-48
2022/09/04 03:25:52;;;;;;;4.13;3.83;;;17.50;99.90;;;;;;5047598;28;20412;-47
2022/09/04 03:28:26;;;;;;;4.90;3.67;;;17.50;99.90;;;;;;5054242;28;20421;-46
2022/09/04 03:30:57;;;;;;;4.07;3.73;;;17.60;99.90;;;;;;5047515;28;20498;-45
2022/09/04 03:33:38;;;;;;;4.80;3.80;;;17.60;99.90;;;;;;5047600;28;20456;-43
2022/09/04 03:36:19;;;;;;;4.73;3.73;;;17.60;99.90;;;;;;5047865;28;20428;-43
2022/09/04 03:39:05;;;;;;;4.20;3.90;;;17.50;99.90;;;;;;5047451;28;20423;-46
2022/09/04 03:41:52;;;;;;;3.60;3.30;;;17.50;99.90;;;;;;5047376;28;20766;-49
2022/09/04 03:44:26;;;;;;;4.27;3.87;;;17.40;99.90;;;;;;5047740;28;20420;-43
2022/09/04 03:47:01;;;;;;;3.50;3.20;;;17.40;99.90;;;;;;5047013;28;20431;-46
2022/09/04 03:49:51;;;;;;;3.50;3.30;;;17.40;99.90;;;;;;5047533;28;20421;-44
2022/09/04 03:52:31;;;;;;;4.50;3.50;;;17.40;99.90;;;;;;5047390;28;20428;-46
2022/09/04 03:55:16;;;;;;;4.07;3.77;;;17.40;99.90;;;;;;5047610;28;20427;-48
2022/09/04 03:57:57;;;;;;;3.50;3.30;;;17.40;99.90;;;;;;5045067;28;20481;-47
2022/09/04 04:00:23;;;;;;;3.37;3.07;;;17.30;99.90;;;;;;5047273;28;20970;-44
2022/09/04 04:03:13;;;;;;;5.70;3.70;;;17.30;99.90;;;;;;5047294;28;20428;-45
2022/09/04 04:06:00;;;;;;;3.90;3.50;;;17.30;99.90;;;;;;5047488;28;20446;-43
2022/09/04 04:08:47;;;;;;;3.93;3.63;;;17.20;99.90;;;;;;5045318;28;20790;-48
2022/09/04 04:11:29;;;;;;;4.63;4.07;;;17.20;99.90;;;;;;5047586;28;20424;-47
2022/09/04 04:14:17;;;;;;;4.23;3.60;;;17.10;99.90;;;;;;5051144;28;20470;-45
2022/09/04 04:16:52;;;;;;;3.70;3.40;;;17.10;99.90;;;;;;5050571;28;20883;-49
2022/09/04 04:19:25;;;;;;;3.80;3.20;;;17.00;99.90;;;;;;5053982;28;20431;-45
2022/09/04 04:22:08;;;;;;;3.97;3.67;;;17.00;99.90;;;;;;5051219;28;20833;-49
2022/09/04 04:24:39;;;;;;;4.60;3.60;;;17.00;99.90;;;;;;5050997;28;20435;-49
2022/09/04 04:27:24;;;;;;;4.77;3.50;;;17.00;99.90;;;;;;5050448;28;20852;-47
2022/09/04 04:30:02;;;;;;;3.60;3.30;;;17.00;99.90;;;;;;5047172;28;20419;-44
2022/09/04 04:32:41;;;;;;;3.53;3.33;;;16.90;99.90;;;;;;5047099;28;20479;-46
2022/09/04 04:35:21;;;;;;;4.00;3.70;;;16.90;99.90;;;;;;5051344;28;20783;-46
2022/09/04 04:38:11;;;;;;;4.17;3.77;;;16.90;99.90;;;;;;5049945;28;20424;-50
2022/09/04 04:41:20;;;;;;;4.60;4.20;;;17.00;99.90;;;;;;5051046;28;20816;-50
2022/09/04 04:43:54;;;;;;;4.10;3.80;;;16.90;99.90;;;;;;5050447;28;20424;-49
2022/09/04 04:46:26;;;;;;;4.00;3.70;;;17.00;99.90;;;;;;5051112;28;20646;-47
2022/09/04 04:49:25;;;;;;;4.13;3.80;;;17.00;99.90;;;;;;5048648;28;20438;-46
2022/09/04 04:52:17;;;;;;;5.23;3.37;;;17.10;99.90;;;;;;5050587;28;20515;-45
2022/09/04 04:54:50;;;;;;;4.33;3.93;;;17.10;99.90;;;;;;5043470;28;20450;-44
2022/09/04 04:57:46;;;;;;;4.70;4.30;;;17.00;99.90;;;;;;5047452;28;20511;-47
2022/09/04 05:00:48;;;;;;;4.10;3.70;;;17.10;99.90;;;;;;5050547;28;20464;-51
2022/09/04 05:03:35;;;;;;;4.67;4.27;;;17.00;99.90;;;;;;5049837;28;20564;-46
2022/09/04 05:06:11;;;;;;;3.90;3.60;;;17.00;99.90;;;;;;5050271;28;20428;-50
2022/09/04 05:09:11;;;;;;;4.43;4.03;;;17.00;99.90;;;;;;5049473;28;20824;-46
2022/09/04 05:11:36;;;;;;;4.43;4.03;;;17.00;99.90;;;;;;5050448;28;20444;-48
2022/09/04 05:14:24;;;;;;;3.87;3.60;;;17.00;99.90;;;;;;5050128;28;20460;-50
2022/09/04 05:17:18;;;;;;;4.60;4.20;;;17.00;99.90;;;;;;5049542;28;20303;-48
2022/09/04 05:20:18;;;;;;;5.17;3.90;;;17.10;99.90;;;;;;5052737;28;20439;-48
2022/09/04 05:22:51;;;;;;;3.80;3.50;;;17.10;99.90;;;;;;5049932;28;20485;-47
2022/09/04 05:26:13;;;;;;;3.97;3.67;;;17.10;99.90;;;;;;5049225;28;20744;-47
2022/09/04 05:28:48;;;;;;;4.60;4.20;;;17.20;99.90;;;;;;5065267;28;20430;-45
2022/09/04 05:31:39;;;;;;;4.87;4.40;;;17.20;99.90;;;;;;5069264;28;21001;-48
2022/09/04 05:34:11;;;;;;;4.70;4.30;;;17.20;99.90;;;;;;5052593;28;20467;-46
2022/09/04 05:37:02;;;;;;;4.00;3.70;;;17.30;99.90;;;;;;5047966;28;20458;-46
2022/09/04 05:39:31;;;;;;;5.40;3.90;;;17.30;99.90;;;;;;5050067;28;20416;-44
2022/09/04 05:42:18;;;;;;;5.03;4.50;;;17.40;99.90;;;;;;5049469;28;20760;-44
2022/09/04 05:45:08;;;;;;;3.90;3.60;;;17.40;99.90;;;;;;5048865;28;20416;-46
2022/09/04 05:48:03;;;;;;;4.50;4.10;;;17.40;99.90;;;;;;5042924;28;20408;-44
2022/09/04 05:50:50;;;;;;;4.70;4.30;;;17.50;99.90;;;;;;5049306;28;20413;-48
2022/09/04 05:53:18;;;;;;;4.57;4.17;;;17.60;99.90;;;;;;5049398;28;20818;-44
2022/09/04 05:56:13;;;;;;;4.90;4.27;;;17.70;99.90;;;;;;5049481;28;20451;-47
2022/09/04 05:59:07;;;;;;;4.20;3.90;;;17.80;99.90;;;;;;5048494;28;20422;-44
2022/09/04 06:01:52;;;;;;;4.63;4.23;;;17.90;99.90;;;;;;5049341;28;20774;-48
2022/09/04 06:04:42;;;;;;;4.37;4.07;;;17.90;99.90;;;;;;5049379;28;20945;-45
2022/09/04 06:07:39;;;;;;;4.73;4.27;;;18.00;99.90;;;;;;5048376;28;20429;-46
2022/09/04 06:10:08;;;;;;;5.70;4.20;;;18.10;99.90;;;;;;5049124;28;20412;-46
2022/09/04 06:12:45;;;;;;;4.97;4.10;;;18.20;99.90;;;;;;5047512;28;20456;-45
2022/09/04 06:15:34;;;;;;;4.67;4.30;;;18.30;99.90;;;;;;5049630;28;20929;-45
2022/09/04 06:18:21;;;;;;;4.87;3.97;;;18.40;99.90;;;;;;5048011;28;20448;-47
2022/09/04 06:21:10;;;;;;;3.97;3.60;;;18.50;99.90;;;;;;5052352;28;20416;-46
2022/09/04 06:24:04;;;;;;;7.33;4.30;;;18.60;99.90;;;;;;5048634;28;20424;-49
2022/09/04 06:26:52;;;;;;;4.10;3.80;;;18.70;99.90;;;;;;5048638;28;20424;-44
2022/09/04 06:29:36;;;;;;;4.53;4.00;;;18.90;99.90;;;;;;5052492;28;20416;-45
2022/09/04 06:32:21;;;;;;;4.10;3.70;;;19.00;99.90;;;;;;5048834;28;20409;-48
2022/09/04 06:35:31;;;;;;;4.57;3.90;;;19.10;99.90;;;;;;5048213;28;20420;-45
2022/09/04 06:38:32;;;;;;;5.10;4.20;;;19.20;99.90;;;;;;5052881;28;20420;-45
2022/09/04 06:41:09;;;;;;;6.10;3.50;;;19.30;99.90;;;;;;5048600;28;20408;-47
2022/09/04 06:44:03;;;;;;;6.00;4.00;;;19.30;99.90;;;;;;5048235;28;20454;-45
2022/09/04 06:46:43;;;;;;;4.70;4.30;;;19.40;99.90;;;;;;5047747;28;20420;-47
2022/09/04 06:49:18;;;;;;;4.03;3.63;;;19.40;99.90;;;;;;5044031;28;20529;-44
2022/09/04 06:52:08;;;;;;;4.00;3.70;;;19.50;99.90;;;;;;5048863;28;20404;-43
2022/09/04 06:54:52;;;;;;;4.10;3.70;;;19.60;99.90;;;;;;5046715;28;20435;-49
2022/09/04 06:57:47;;;;;;;3.97;3.50;;;19.70;99.90;;;;;;5043363;28;20458;-43
2022/09/04 07:00:15;;;;;;;4.03;3.73;;;19.80;99.90;;;;;;5048354;28;20463;-45
2022/09/04 07:02:59;;;;;;;3.90;3.60;;;19.90;99.90;;;;;;5048066;28;20436;-48
2022/09/04 07:05:51;;;;;;;3.93;3.63;;;19.90;99.90;;;;;;5047877;28;20432;-48
2022/09/04 07:08:48;;;;;;;3.60;3.20;;;20.00;99.90;;;;;;5063704;28;20503;-44
2022/09/04 07:11:17;;;;;;;3.97;3.67;;;20.10;99.90;;;;;;5046462;28;20714;-46
2022/09/04 07:14:18;;;;;;;3.90;3.60;;;20.10;99.90;;;;;;5048093;28;20640;-50
2022/09/04 07:17:02;;;;;;;3.77;3.47;;;20.20;99.90;;;;;;5041481;28;20424;-46
2022/09/04 07:19:58;;;;;;;3.47;3.27;;;20.20;99.90;;;;;;5048702;28;20444;-46
2022/09/04 07:22:33;;;;;;;3.90;3.60;;;20.30;99.90;;;;;;5039549;28;20397;-47
2022/09/04 07:24:59;;;;;;;4.00;3.60;;;20.40;99.90;;;;;;5045226;28;20427;-48
2022/09/04 07:27:51;;;;;;;3.80;3.40;;;20.40;99.90;;;;;;5061138;28;20412;-48
2022/09/04 07:30:18;;;;;;;4.30;3.40;;;20.50;99.90;;;;;;5065591;28;20181;-49
2022/09/04 07:32:58;;;;;;;3.80;3.37;;;20.60;99.90;;;;;;5046240;28;20472;-44
2022/09/04 07:35:47;;;;;;;3.73;3.43;;;20.70;99.90;;;;;;5042909;28;20408;-47
2022/09/04 07:38:21;;;;;;;3.47;3.17;;;20.80;99.90;;;;;;5045389;28;20413;-45
2022/09/04 07:41:00;;;;;;;3.00;2.80;;;20.90;99.90;;;;;;5046096;28;20437;-48
2022/09/04 07:43:44;;;;;;;4.00;3.70;;;20.90;99.90;;;;;;5042592;28;20408;-47
2022/09/04 07:46:39;;;;;;;3.67;3.33;;;21.00;99.90;;;;;;5035464;28;20992;-46
2022/09/04 07:49:22;;;;;;;3.00;2.80;;;21.10;99.90;;;;;;5054317;28;20416;-47
2022/09/04 07:51:59;;;;;;;3.80;3.50;;;21.20;99.90;;;;;;5053365;28;20505;-49
2022/09/04 07:54:39;;;;;;;3.47;3.20;;;21.30;99.90;;;;;;5050488;28;20464;-47
2022/09/04 07:57:32;;;;;;;3.57;3.23;;;21.40;99.90;;;;;;5048009;28;20789;-45
2022/09/04 08:00:22;;;;;;;3.00;2.77;;;21.40;99.90;;;;;;5052217;28;20456;-45
2022/09/04 08:03:18;;;;;;;4.07;3.20;;;21.40;99.90;;;;;;5053348;28;20432;-46
2022/09/04 08:06:16;;;;;;;3.83;3.37;;;21.40;99.90;;;;;;5050869;28;20839;-48
2022/09/04 08:09:03;;;;;;;3.03;2.83;;;21.50;99.90;;;;;;5050810;28;20985;-45
2022/09/04 08:11:57;;;;;;;3.03;2.80;;;21.50;99.90;;;;;;5055540;28;20909;-47
2022/09/04 08:14:44;;;;;;;3.20;3.00;;;21.60;99.90;;;;;;5051099;28;20618;-48
2022/09/04 08:17:28;;;;;;;3.13;2.83;;;21.60;99.90;;;;;;5051885;28;20573;-47
2022/09/04 08:20:32;;;;;;;3.40;3.10;;;21.60;99.90;;;;;;5055085;28;20775;-50
2022/09/04 08:23:17;;;;;;;3.40;3.00;;;21.70;99.90;;;;;;5054488;28;20411;-46
2022/09/04 08:26:21;;;;;;;3.40;3.10;;;21.70;99.90;;;;;;5049686;28;20972;-46
2022/09/04 08:29:05;;;;;;;3.47;3.10;;;21.70;99.90;;;;;;5050744;28;20473;-46
2022/09/04 08:32:10;;;;;;;3.10;2.90;;;21.70;99.90;;;;;;5047851;28;20577;-44
2022/09/04 08:35:07;;;;;;;20.37;3.43;;;21.80;99.90;;;;;;5048604;28;20424;-44
2022/09/04 08:38:01;;;;;;;5.87;3.60;;;21.90;99.90;;;;;;5051647;28;20852;-44
2022/09/04 08:41:20;;;;;;;4.83;3.20;;;22.00;99.90;;;;;;5049250;28;20412;-51
2022/09/04 08:44:22;;;;;;;2.67;2.47;;;22.00;99.90;;;;;;5048973;28;20408;-44
2022/09/04 08:47:17;;;;;;;4.00;3.30;;;22.10;99.90;;;;;;5047018;28;20482;-46
2022/09/04 08:50:04;;;;;;;3.60;3.00;;;22.10;99.90;;;;;;5048546;28;20944;-46
2022/09/04 08:52:49;;;;;;;2.87;2.60;;;22.20;99.90;;;;;;5050720;28;20396;-48
2022/09/04 08:55:54;;;;;;;3.33;2.93;;;22.30;99.90;;;;;;5049624;28;20507;-43
2022/09/04 08:58:45;;;;;;;3.17;2.97;;;22.30;99.90;;;;;;5047094;28;20860;-45
2022/09/04 09:01:22;;;;;;;3.10;2.90;;;22.30;99.90;;;;;;5048931;28;20561;-45
2022/09/04 09:03:54;;;;;;;3.87;3.13;;;22.40;99.90;;;;;;5047670;28;20499;-48
2022/09/04 09:06:48;;;;;;;3.60;3.30;;;22.40;99.90;;;;;;5048396;28;20788;-47
2022/09/04 09:09:32;;;;;;;3.60;3.30;;;22.50;99.90;;;;;;5051078;28;20509;-51
2022/09/04 09:12:22;;;;;;;4.03;3.30;;;22.50;99.90;;;;;;5057445;28;20430;-46
2022/09/04 09:15:14;;;;;;;3.37;3.10;;;22.60;99.90;;;;;;5064489;28;20456;-48
2022/09/04 09:17:55;;;;;;;3.33;3.03;;;22.70;99.90;;;;;;5048539;28;20416;-48
2022/09/04 09:20:52;;;;;;;5.90;3.70;;;22.80;99.90;;;;;;5048972;28;20478;-46
2022/09/04 09:23:55;;;;;;;3.90;3.50;;;22.90;99.90;;;;;;5050823;28;20904;-47
2022/09/04 09:26:32;;;;;;;5.40;3.73;;;23.10;99.90;;;;;;5049004;28;20469;-47
2022/09/04 09:29:00;;;;;;;4.90;3.73;;;23.10;99.90;;;;;;5050478;28;20518;-44
2022/09/04 09:31:52;;;;;;;3.80;3.50;;;23.20;99.90;;;;;;5051414;28;20943;-47
2022/09/04 09:34:58;;;;;;;3.77;3.47;;;23.40;99.90;;;;;;5050100;28;20525;-46
2022/09/04 09:37:33;;;;;;;3.80;3.40;;;23.50;99.90;;;;;;5049289;28;20950;-43
2022/09/04 09:40:20;;;;;;;3.50;3.00;;;23.70;99.90;;;;;;5048902;28;20421;-51
2022/09/04 09:43:25;;;;;;;4.60;3.47;;;23.80;99.90;;;;;;5050976;28;20424;-46
2022/09/04 09:46:15;;;;;;;4.90;3.53;;;24.00;99.90;;;;;;5052228;28;20443;-50
2022/09/04 09:48:56;;;;;;;3.43;3.20;;;24.20;99.90;;;;;;5049593;28;20414;-44
2022/09/04 09:51:31;;;;;;;3.83;3.53;;;24.30;99.90;;;;;;5051124;28;20412;-48
2022/09/04 09:54:11;;;;;;;4.10;3.70;;;24.40;99.90;;;;;;5048854;28;20455;-49
2022/09/04 09:57:14;;;;;;;3.80;3.50;;;24.50;99.90;;;;;;5050649;28;20415;-46
2022/09/04 10:00:05;;;;;;;3.33;3.00;;;24.50;99.90;;;;;;5051596;28;20439;-47
2022/09/04 10:02:36;;;;;;;4.07;3.77;;;24.70;99.90;;;;;;5048420;28;20419;-44
2022/09/04 10:05:20;;;;;;;3.40;3.10;;;24.80;99.90;;;;;;5064907;28;20432;-46
2022/09/04 10:08:09;;;;;;;4.13;3.47;;;24.80;99.90;;;;;;5065010;28;20436;-46
2022/09/04 10:10:57;;;;;;;3.50;3.13;;;24.80;99.90;;;;;;5050770;28;20444;-47
2022/09/04 10:13:54;;;;;;;3.47;3.20;;;25.00;99.90;;;;;;5050546;28;20586;-50
2022/09/04 10:16:44;;;;;;;3.57;3.27;;;25.20;99.90;;;;;;5049365;28;20412;-50
2022/09/04 10:19:16;;;;;;;3.50;3.20;;;25.30;99.90;;;;;;5052122;28;20443;-44
2022/09/04 10:22:23;;;;;;;3.27;3.07;;;25.30;99.90;;;;;;5047945;28;20424;-47
2022/09/04 10:25:08;;;;;;;3.30;3.00;;;25.40;99.90;;;;;;5050690;28;20942;-46
2022/09/04 10:27:52;;;;;;;3.40;3.10;;;25.50;99.90;;;;;;5048294;28;20435;-45
2022/09/04 10:30:19;;;;;;;3.63;3.33;;;25.50;99.90;;;;;;5048454;28;20808;-44
2022/09/04 10:32:56;;;;;;;3.63;3.30;;;25.70;99.90;;;;;;5049975;28;20500;-45
2022/09/04 10:35:51;;;;;;;3.47;3.20;;;25.80;99.90;;;;;;5048562;28;20502;-44
2022/09/04 10:41:44;;;;;;;3.50;3.10;;;26.10;99.90;;;;;;5044313;28;20435;-46
2022/09/04 10:44:22;;;;;;;3.53;3.23;;;26.10;99.90;;;;;;5045656;28;20958;-45
2022/09/04 10:47:07;;;;;;;3.60;3.30;;;26.00;99.90;;;;;;5047301;28;20443;-46
2022/09/04 10:50:06;;;;;;;3.50;3.20;;;26.10;99.90;;;;;;5046887;28;20516;-48
2022/09/04 10:52:39;;;;;;;3.80;3.50;;;26.30;99.90;;;;;;5047118;28;21115;-45
2022/09/04 10:55:29;;;;;;;3.70;3.30;;;26.40;99.90;;;;;;5048279;28;20448;-46
2022/09/04 10:58:26;;;;;;;3.40;3.10;;;26.40;99.90;;;;;;5047811;28;20432;-47
2022/09/04 11:01:07;;;;;;;3.77;3.33;;;26.30;99.90;;;;;;5047100;28;20978;-50
2022/09/04 11:03:51;;;;;;;3.97;3.20;;;26.10;99.90;;;;;;5050139;28;20477;-46
2022/09/04 11:06:25;;;;;;;4.03;3.20;;;25.90;99.90;;;;;;5038763;28;20467;-45
2022/09/04 11:09:29;;;;;;;4.50;3.13;;;25.80;99.90;;;;;;5046678;28;20559;-49
2022/09/04 11:12:17;;;;;;;3.17;2.87;;;25.60;99.90;;;;;;5047082;28;20840;-48
2022/09/04 11:15:00;;;;;;;3.93;3.00;;;25.50;99.90;;;;;;5045922;28;20452;-44
2022/09/04 11:17:40;;;;;;;3.60;3.30;;;25.50;99.90;;;;;;5048692;28;20436;-47
2022/09/04 11:20:25;;;;;;;3.10;2.90;;;25.50;99.90;;;;;;5044169;28;20460;-48
2022/09/04 11:23:12;;;;;;;3.10;2.90;;;25.60;99.90;;;;;;5048010;28;20813;-48
2022/09/04 11:25:50;;;;;;;3.53;3.17;;;25.70;99.90;;;;;;5050290;28;20452;-50
2022/09/04 11:28:49;;;;;;;3.93;3.40;;;25.70;99.90;;;;;;5047432;28;20463;-45
2022/09/04 11:31:55;;;;;;;3.63;3.27;;;25.90;99.90;;;;;;5048359;28;20543;-49
2022/09/04 11:35:07;;;;;;;3.30;3.10;;;25.80;99.90;;;;;;5046359;28;21039;-49
2022/09/04 11:38:08;;;;;;;3.40;3.07;;;25.70;99.90;;;;;;5048352;28;20522;-47
2022/09/04 11:41:18;;;;;;;3.23;2.93;;;25.60;99.90;;;;;;5048877;28;20452;-51
2022/09/04 11:44:10;;;;;;;3.10;2.90;;;25.70;99.90;;;;;;5046092;28;20464;-46
2022/09/04 11:47:20;;;;;;;3.17;2.97;;;25.60;99.90;;;;;;5045740;28;20444;-49
2022/09/04 11:50:36;;;;;;;3.30;2.97;;;25.40;99.90;;;;;;5054816;28;20455;-47
2022/09/04 11:53:13;;;;;;;3.77;3.00;;;25.30;99.90;;;;;;5057676;28;20542;-49
2022/09/04 11:56:17;;;;;;;3.10;2.80;;;25.10;99.90;;;;;;5048021;28;20952;-50
2022/09/04 11:59:02;;;;;;;5.80;3.50;;;25.10;99.90;;;;;;5050920;28;20474;-48
2022/09/04 12:01:57;;;;;;;3.70;2.80;;;25.00;99.90;;;;;;5046860;28;20515;-49
2022/09/04 12:04:28;;;;;;;3.40;3.10;;;24.90;99.90;;;;;;5048338;28;20501;-50
2022/09/04 12:07:36;;;;;;;3.27;2.97;;;25.00;99.90;;;;;;5048961;28;20793;-46
2022/09/04 12:10:17;;;;;;;3.43;3.10;;;25.10;99.90;;;;;;5049186;28;20452;-48
2022/09/04 12:12:56;;;;;;;3.80;2.43;;;25.10;99.90;;;;;;5051162;28;20557;-51
2022/09/04 12:15:28;;;;;;;3.07;2.87;;;25.20;99.90;;;;;;5064238;28;20447;-48
2022/09/04 12:18:19;;;;;;;3.33;3.03;;;25.20;99.90;;;;;;5048730;28;20463;-48
2022/09/04 12:21:09;;;;;;;3.20;3.00;;;25.20;99.90;;;;;;5048710;28;20480;-45
2022/09/04 12:23:52;;;;;;;4.33;3.23;;;25.10;99.90;;;;;;5047375;28;21165;-44
2022/09/04 12:26:20;;;;;;;4.17;2.80;;;25.00;99.90;;;;;;5056448;28;20444;-49
2022/09/04 12:29:05;;;;;;;2.70;2.50;;;25.00;99.90;;;;;;5046797;28;20464;-49
2022/09/04 12:31:51;;;;;;;3.07;2.87;;;25.00;99.90;;;;;;5060825;28;20455;-46
2022/09/04 12:34:51;;;;;;;2.87;2.67;;;25.10;99.90;;;;;;5049945;28;20559;-45
2022/09/04 12:37:55;;;;;;;3.90;3.60;;;25.20;99.90;;;;;;5049513;28;20534;-45
2022/09/04 12:40:47;;;;;;;3.10;2.90;;;25.40;99.90;;;;;;5048656;28;20973;-46
2022/09/04 12:43:21;;;;;;;4.73;3.13;;;25.60;99.90;;;;;;5040935;28;20460;-51
2022/09/04 12:46:04;;;;;;;3.40;2.70;;;25.80;99.90;;;;;;5050157;28;20935;-45
2022/09/04 12:49:03;;;;;;;4.13;3.10;;;26.00;99.50;;;;;;5049653;28;20485;-49
2022/09/04 12:51:43;;;;;;;3.60;3.30;;;26.20;98.40;;;;;;5049833;28;20447;-48
2022/09/04 12:54:38;;;;;;;2.90;2.70;;;26.30;98.20;;;;;;5050229;28;20610;-45
2022/09/04 12:57:16;;;;;;;2.60;2.40;;;26.40;99.10;;;;;;5049015;28;20773;-48
2022/09/04 12:59:57;;;;;;;4.00;3.20;;;26.60;99.70;;;;;;5050044;28;20451;-50
2022/09/04 13:02:43;;;;;;;3.50;3.20;;;26.80;99.50;;;;;;5050264;28;20448;-46
2022/09/04 13:05:32;;;;;;;3.33;2.53;;;26.90;98.60;;;;;;5049546;28;20458;-49
2022/09/04 13:08:31;;;;;;;3.47;2.80;;;27.00;98.60;;;;;;5049040;28;20452;-48
2022/09/04 13:11:03;;;;;;;2.90;2.60;;;27.10;98.80;;;;;;5049800;28;20428;-46
2022/09/04 13:13:34;;;;;;;3.90;3.50;;;27.30;98.20;;;;;;5049624;28;20459;-44
2022/09/04 13:16:12;;;;;;;3.20;2.90;;;27.30;97.20;;;;;;5049880;28;20471;-49
2022/09/04 13:19:10;;;;;;;3.17;2.97;;;27.30;97.30;;;;;;5049263;28;20432;-47
2022/09/04 13:21:47;;;;;;;3.97;3.57;;;27.40;97.60;;;;;;5049047;28;20428;-46
2022/09/04 13:24:38;;;;;;;5.07;3.00;;;27.40;96.20;;;;;;5049616;28;20662;-45
2022/09/04 13:27:14;;;;;;;3.67;3.37;;;27.40;97.00;;;;;;5049024;28;20431;-45
2022/09/04 13:29:54;;;;;;;3.10;2.80;;;27.40;96.30;;;;;;5049404;28;20473;-46
2022/09/04 13:32:38;;;;;;;4.57;3.03;;;27.40;96.10;;;;;;5049504;28;20427;-48
2022/09/04 13:35:26;;;;;;;3.23;2.90;;;27.30;96.00;;;;;;5049400;28;20425;-44
2022/09/04 13:38:23;;;;;;;3.37;3.07;;;27.20;96.40;;;;;;5048466;28;20965;-50
2022/09/04 13:41:10;;;;;;;2.93;2.73;;;27.00;95.80;;;;;;5049340;28;20464;-49
2022/09/04 13:43:53;;;;;;;3.63;2.83;;;26.80;96.50;;;;;;5049046;28;20432;-47
2022/09/04 13:46:42;;;;;;;3.00;2.80;;;26.90;96.60;;;;;;5048970;28;20542;-46
2022/09/04 13:49:28;;;;;;;2.83;2.63;;;26.90;96.10;;;;;;5049093;28;20432;-46
2022/09/04 13:52:03;;;;;;;2.80;2.60;;;26.90;96.60;;;;;;5048586;28;20769;-45
2022/09/04 13:54:35;;;;;;;2.60;2.47;;;26.90;95.80;;;;;;5039385;28;20864;-48
2022/09/04 13:57:19;;;;;;;2.70;2.50;;;27.00;95.90;;;;;;5047548;28;20510;-51
2022/09/04 13:59:48;;;;;;;2.87;2.67;;;27.10;96.60;;;;;;5048748;28;20424;-47
2022/09/04 14:02:23;;;;;;;2.67;2.47;;;27.10;96.50;;;;;;5048566;28;20447;-49
2022/09/04 14:04:52;;;;;;;2.40;2.20;;;27.10;96.40;;;;;;5048816;28;20730;-50
2022/09/04 14:07:28;;;;;;;4.73;2.90;;;27.10;96.10;;;;;;5048255;28;20447;-49
2022/09/04 14:09:59;;;;;;;2.70;2.50;;;27.20;95.80;;;;;;5048757;28;20439;-46
2022/09/04 14:12:39;;;;;;;2.70;2.50;;;27.20;96.70;;;;;;5048844;28;20424;-50
2022/09/04 14:15:24;;;;;;;3.00;2.60;;;27.10;95.30;;;;;;5048669;28;20439;-46
2022/09/04 14:18:16;;;;;;;3.30;2.87;;;27.10;95.80;;;;;;5047834;28;20448;-46
2022/09/04 14:20:56;;;;;;;2.80;2.60;;;27.00;94.80;;;;;;5054633;28;20432;-47
2022/09/04 14:23:25;;;;;;;4.43;3.20;;;27.00;95.60;;;;;;5048359;28;20876;-46
2022/09/04 14:26:11;;;;;;;3.30;3.00;;;27.00;96.00;;;;;;5048660;28;20428;-49